createdAt,value
2023-03-06T00:00:21.423Z,100151.97
2023-03-06T00:02:49.936Z,100153.69
2023-03-06T00:05:20.258Z,100145.06
2023-03-06T00:07:49.183Z,100153.47
2023-03-06T00:10:19.451Z,100136.13
2023-03-06T00:12:48.065Z,100143.03
2023-03-06T00:15:16.511Z,100134.28
2023-03-06T00:17:44.815Z,100135.97
2023-03-06T00:20:14.688Z,100099.16
2023-03-06T00:22:44.977Z,100062.47
2023-03-06T00:25:15.635Z,100140.94
2023-03-06T00:27:43.923Z,100132.38
2023-03-06T00:30:15.853Z,100131.38
2023-03-06T00:32:44.820Z,100144.38
2023-03-06T00:35:14.270Z,100097.22
2023-03-06T00:37:42.926Z,100112.94
2023-03-06T00:40:17.190Z,100119.31
2023-03-06T00:42:46.074Z,100105.41
2023-03-06T00:45:14.329Z,100080.16
2023-03-06T00:47:43.105Z,100096.03
2023-03-06T00:50:12.948Z,100114.53
2023-03-06T00:52:42.177Z,100109.47
2023-03-06T00:55:13.117Z,100104.47
2023-03-06T00:57:41.307Z,100111.38
2023-03-06T01:00:11.947Z,100101.81
2023-03-06T01:02:40.989Z,100101.69
2023-03-06T01:05:10.437Z,100109.72
2023-03-06T01:07:38.726Z,100101.94
2023-03-06T01:10:09.100Z,100101.75
2023-03-06T01:12:38.989Z,100105.41
2023-03-06T01:15:08.921Z,100074.06
2023-03-06T01:17:37.040Z,100095.75
2023-03-06T01:20:06.294Z,100102.84
2023-03-06T01:22:34.705Z,100085.63
2023-03-06T01:25:02.821Z,100097.44
2023-03-06T01:27:31.197Z,100100.78
2023-03-06T01:30:00.837Z,100069.56
2023-03-06T01:32:29.030Z,100078.97
2023-03-06T01:34:57.949Z,100048.44
2023-03-06T01:37:26.125Z,100082.78
2023-03-06T01:39:54.709Z,100087.88
2023-03-06T01:42:22.955Z,100083.34
2023-03-06T01:45:03.306Z,100081.28
2023-03-06T01:47:31.792Z,100075.22
2023-03-06T01:50:01.992Z,100081.13
2023-03-06T01:52:33.155Z,100077.56
2023-03-06T01:55:05.657Z,100079.41
2023-03-06T01:57:37.080Z,100079.50
2023-03-06T02:00:10.407Z,100079.56
2023-03-06T02:02:40.437Z,100075.69
2023-03-06T02:05:09.964Z,100053.00
2023-03-06T02:07:39.475Z,100060.94
2023-03-06T02:10:08.616Z,100084.75
2023-03-06T02:12:37.751Z,100066.00
2023-03-06T02:15:08.617Z,100048.53
2023-03-06T02:17:38.254Z,100074.75
2023-03-06T02:20:12.733Z,100063.63
2023-03-06T02:22:48.937Z,100066.31
2023-03-06T02:25:37.328Z,100069.25
2023-03-06T02:28:07.560Z,100037.69
2023-03-06T02:30:36.489Z,100046.50
2023-03-06T02:33:05.979Z,100046.91
2023-03-06T02:35:36.648Z,100027.78
2023-03-06T02:38:09.647Z,100039.72
2023-03-06T02:40:39.696Z,100039.41
2023-03-06T02:43:08.512Z,100051.78
2023-03-06T02:45:40.333Z,100039.94
2023-03-06T02:48:09.633Z,100046.91
2023-03-06T02:50:37.843Z,100035.56
2023-03-06T02:53:07.342Z,100042.66
2023-03-06T02:55:35.674Z,100039.84
2023-03-06T02:58:06.414Z,100036.25
2023-03-06T03:00:35.753Z,100048.94
2023-03-06T03:03:05.386Z,100039.34
2023-03-06T03:05:34.050Z,100039.16
2023-03-06T03:08:02.595Z,100039.09
2023-03-06T03:10:31.050Z,100031.44
2023-03-06T03:12:59.434Z,100029.75
2023-03-06T03:15:29.238Z,100034.28
2023-03-06T03:17:57.988Z,100026.22
2023-03-06T03:20:26.076Z,100028.47
2023-03-06T03:22:56.322Z,100009.22
2023-03-06T03:25:26.794Z,100026.72
2023-03-06T03:27:55.768Z,100016.00
2023-03-06T03:30:24.750Z,100028.56
2023-03-06T03:32:54.593Z,100023.69
2023-03-06T03:35:22.976Z,100014.88
2023-03-06T03:37:52.909Z,100018.50
2023-03-06T03:40:21.532Z,100014.97
2023-03-06T03:42:50.020Z,100004.56
2023-03-06T03:45:18.604Z,100019.25
2023-03-06T03:47:46.810Z,99986.84
2023-03-06T03:50:16.618Z,100012.88
2023-03-06T03:52:45.224Z,100009.44
2023-03-06T03:55:13.675Z,100007.69
2023-03-06T03:57:43.221Z,99951.41
2023-03-06T04:00:16.379Z,100003.88
2023-03-06T04:02:45.904Z,100000.50
2023-03-06T04:05:17.079Z,99997.06
2023-03-06T04:07:46.087Z,99995.31
2023-03-06T04:10:15.485Z,100002.25
2023-03-06T04:12:43.870Z,99979.53
2023-03-06T04:15:12.664Z,99972.47
2023-03-06T04:17:40.743Z,99984.50
2023-03-06T04:20:10.171Z,99980.94
2023-03-06T04:22:39.726Z,99984.59
2023-03-06T04:25:08.226Z,99968.97
2023-03-06T04:27:36.428Z,99970.59
2023-03-06T04:30:05.809Z,99986.31
2023-03-06T04:32:34.025Z,99977.56
2023-03-06T04:35:02.310Z,99892.19
2023-03-06T04:37:31.279Z,99966.53
2023-03-06T04:40:00.855Z,99971.59
2023-03-06T04:42:29.298Z,99971.63
2023-03-06T04:44:58.292Z,99972.53
2023-03-06T04:47:26.791Z,99970.09
2023-03-06T04:49:55.472Z,99961.34
2023-03-06T04:52:23.862Z,99967.50
2023-03-06T04:54:52.006Z,99953.50
2023-03-06T04:57:22.179Z,99963.78
2023-03-06T04:59:50.810Z,99956.09
2023-03-06T05:02:19.295Z,99937.31
2023-03-06T05:04:48.040Z,99933.63
2023-03-06T05:07:16.392Z,99947.81
2023-03-06T05:09:44.690Z,99960.31
2023-03-06T05:12:12.831Z,99946.50
2023-03-06T05:14:42.686Z,99949.06
2023-03-06T05:17:10.895Z,99944.84
2023-03-06T05:19:39.176Z,99958.44
2023-03-06T05:22:07.527Z,99946.06
2023-03-06T05:24:35.645Z,99889.31
2023-03-06T05:27:03.700Z,99937.47
2023-03-06T05:29:32.024Z,99938.41
2023-03-06T05:32:01.909Z,99949.16
2023-03-06T05:34:30.084Z,99954.44
2023-03-06T05:37:01.973Z,99956.03
2023-03-06T05:39:30.300Z,99948.13
2023-03-06T05:41:59.047Z,99944.84
2023-03-06T05:44:32.327Z,99944.47
2023-03-06T05:47:02.978Z,99895.56
2023-03-06T05:49:34.136Z,99943.69
2023-03-06T05:52:04.327Z,99940.44
2023-03-06T05:54:33.462Z,99938.91
2023-03-06T05:57:01.863Z,99942.44
2023-03-06T05:59:30.244Z,99938.75
2023-03-06T06:01:59.254Z,99932.28
2023-03-06T06:04:29.465Z,99927.19
2023-03-06T06:06:59.454Z,99924.69
2023-03-06T06:09:28.558Z,99937.94
2023-03-06T06:11:59.021Z,99933.56
2023-03-06T06:14:27.903Z,99934.16
2023-03-06T06:16:59.076Z,99935.03
2023-03-06T06:19:30.777Z,99935.47
2023-03-06T06:21:59.406Z,99929.84
2023-03-06T06:24:28.231Z,99942.81
2023-03-06T06:26:58.206Z,99940.97
2023-03-06T06:29:27.971Z,99939.28
2023-03-06T06:31:57.134Z,99936.38
2023-03-06T06:34:30.821Z,99942.56
2023-03-06T06:36:59.235Z,99921.59
2023-03-06T06:39:27.558Z,99947.03
2023-03-06T06:42:14.685Z,99942.50
2023-03-06T06:44:45.578Z,99941.00
2023-03-06T06:47:24.031Z,99939.13
2023-03-06T06:49:56.760Z,99927.13
2023-03-06T06:52:26.970Z,99939.38
2023-03-06T06:54:55.954Z,99936.09
2023-03-06T06:57:24.100Z,99932.84
2023-03-06T06:59:54.173Z,99933.03
2023-03-06T07:02:22.874Z,99942.66
2023-03-06T07:05:03.061Z,99935.63
2023-03-06T07:07:36.312Z,99940.06
2023-03-06T07:10:06.854Z,99945.13
2023-03-06T07:12:35.656Z,99948.63
2023-03-06T07:15:05.126Z,99950.50
2023-03-06T07:17:33.458Z,99935.13
2023-03-06T07:20:03.605Z,99922.97
2023-03-06T07:22:44.776Z,99948.97
2023-03-06T07:25:18.573Z,99937.72
2023-03-06T07:27:53.336Z,99940.50
2023-03-06T07:30:23.331Z,99927.50
2023-03-06T07:32:57.446Z,99942.38
2023-03-06T07:35:27.293Z,99942.38
2023-03-06T07:37:57.484Z,99939.91
2023-03-06T07:40:26.755Z,99938.28
2023-03-06T07:43:06.077Z,99933.03
2023-03-06T07:45:41.440Z,99895.66
2023-03-06T07:48:09.654Z,99944.59
2023-03-06T07:50:39.124Z,99945.59
2023-03-06T07:53:10.778Z,99946.81
2023-03-06T07:55:41.561Z,99929.47
2023-03-06T07:58:10.035Z,99947.13
2023-03-06T08:00:38.980Z,99924.69
2023-03-06T08:03:07.584Z,99926.34
2023-03-06T08:05:35.913Z,99942.09
2023-03-06T08:08:04.236Z,99929.97
2023-03-06T08:10:34.092Z,99943.13
2023-03-06T08:13:02.524Z,99914.41
2023-03-06T08:15:31.171Z,99951.13
2023-03-06T08:17:59.905Z,99945.22
2023-03-06T08:20:28.587Z,99948.09
2023-03-06T08:22:57.252Z,99934.41
2023-03-06T08:25:25.796Z,99913.56
2023-03-06T08:27:55.749Z,99927.69
2023-03-06T08:30:24.412Z,99919.19
2023-03-06T08:32:52.711Z,99938.38
2023-03-06T08:35:21.146Z,99942.84
2023-03-06T08:37:49.849Z,99912.47
2023-03-06T08:40:18.399Z,99935.22
2023-03-06T08:42:48.916Z,99933.56
2023-03-06T08:45:18.745Z,99931.78
2023-03-06T08:47:49.919Z,99927.34
2023-03-06T08:50:19.109Z,99944.78
2023-03-06T08:52:47.942Z,99944.66
2023-03-06T08:55:16.259Z,99950.72
2023-03-06T08:57:44.439Z,99948.06
2023-03-06T09:00:14.360Z,99942.84
2023-03-06T09:02:44.291Z,99944.59
2023-03-06T09:05:13.051Z,99950.78
2023-03-06T09:07:41.619Z,99945.69
2023-03-06T09:10:15.425Z,99935.44
2023-03-06T09:12:50.119Z,99928.50
2023-03-06T09:15:21.031Z,99897.25
2023-03-06T09:17:51.052Z,99928.84
2023-03-06T09:20:20.128Z,99936.75
2023-03-06T09:22:48.512Z,99920.97
2023-03-06T09:25:22.561Z,99915.09
2023-03-06T09:28:08.780Z,99916.09
2023-03-06T09:30:38.955Z,99937.81
2023-03-06T09:33:08.596Z,99934.34
2023-03-06T09:35:51.151Z,99930.94
2023-03-06T09:38:23.440Z,99928.38
2023-03-06T09:41:03.784Z,99915.34
2023-03-06T09:43:36.103Z,99918.88
2023-03-06T09:46:09.416Z,99916.22
2023-03-06T09:48:49.027Z,99925.81
2023-03-06T09:51:20.531Z,99925.94
2023-03-06T09:54:00.699Z,99920.72
2023-03-06T09:56:32.387Z,99916.38
2023-03-06T09:59:08.638Z,99915.50
2023-03-06T10:01:41.324Z,99919.84
2023-03-06T10:04:26.694Z,99919.88
2023-03-06T10:06:58.427Z,99924.19
2023-03-06T10:09:37.810Z,99914.66
2023-03-06T10:12:14.176Z,99907.66
2023-03-06T10:14:48.983Z,99915.50
2023-03-06T10:17:19.825Z,99922.44
2023-03-06T10:19:53.217Z,99915.47
2023-03-06T10:22:29.547Z,99910.28
2023-03-06T10:25:04.622Z,99901.56
2023-03-06T10:27:44.046Z,99859.78
2023-03-06T10:30:29.118Z,99911.09
2023-03-06T10:32:59.235Z,99908.41
2023-03-06T10:35:41.695Z,99902.38
2023-03-06T10:38:19.760Z,99857.97
2023-03-06T10:40:57.146Z,99897.97
2023-03-06T10:43:28.610Z,99897.97
2023-03-06T10:45:56.959Z,99892.72
2023-03-06T10:48:27.193Z,99903.25
2023-03-06T10:51:18.016Z,99899.72
2023-03-06T10:53:53.041Z,99885.69
2023-03-06T10:56:33.274Z,99880.56
2023-03-06T10:59:14.226Z,99885.78
2023-03-06T11:01:44.488Z,99892.72
2023-03-06T11:04:29.308Z,99879.59
2023-03-06T11:07:29.389Z,99878.63
2023-03-06T11:10:18.026Z,99894.38
2023-03-06T11:12:58.822Z,99897.09
2023-03-06T11:15:30.519Z,99851.00
2023-03-06T11:18:02.149Z,99895.28
2023-03-06T11:20:48.881Z,99888.25
2023-03-06T11:23:23.551Z,99892.56
2023-03-06T11:25:57.661Z,99882.91
2023-03-06T11:28:32.882Z,99878.53
2023-03-06T11:31:08.241Z,99872.47
2023-03-06T11:33:41.785Z,99885.47
2023-03-06T11:36:16.517Z,99867.31
2023-03-06T11:38:50.511Z,99873.22
2023-03-06T11:41:28.790Z,99878.47
2023-03-06T11:44:07.466Z,99863.00
2023-03-06T11:46:44.611Z,99885.53
2023-03-06T11:49:21.184Z,99833.25
2023-03-06T11:51:53.636Z,99871.69
2023-03-06T11:54:24.614Z,99892.81
2023-03-06T11:56:57.633Z,99899.84
2023-03-06T11:59:58.070Z,99898.97
2023-03-06T12:02:40.706Z,99890.25
2023-03-06T12:05:27.578Z,99905.06
2023-03-06T12:08:02.985Z,99899.75
2023-03-06T12:10:39.098Z,99905.00
2023-03-06T12:13:27.895Z,99900.59
2023-03-06T12:16:14.098Z,99901.34
2023-03-06T12:18:55.556Z,99900.47
2023-03-06T12:21:32.747Z,99906.50
2023-03-06T12:24:21.422Z,99903.00
2023-03-06T12:27:10.507Z,99899.44
2023-03-06T12:29:57.994Z,99904.59
2023-03-06T12:32:45.461Z,99901.94
2023-03-06T12:35:50.173Z,99903.63
2023-03-06T12:38:47.136Z,99913.13
2023-03-06T12:41:30.683Z,99928.75
2023-03-06T12:44:28.641Z,99930.44
2023-03-06T12:47:02.029Z,99923.47
2023-03-06T12:49:33.431Z,99925.13
2023-03-06T12:52:07.652Z,99903.31
2023-03-06T12:54:40.002Z,99925.88
2023-03-06T12:57:11.513Z,99919.69
2023-03-06T12:59:44.678Z,99927.59
2023-03-06T13:02:50.851Z,99922.44
2023-03-06T13:05:35.863Z,99916.22
2023-03-06T13:08:20.366Z,99886.69
2023-03-06T13:11:07.321Z,99914.69
2023-03-06T13:13:44.188Z,99904.41
2023-03-06T13:16:23.940Z,99895.78
2023-03-06T13:18:57.575Z,99904.53
2023-03-06T13:21:46.608Z,99902.88
2023-03-06T13:24:21.281Z,99902.94
2023-03-06T13:26:57.150Z,99898.66
2023-03-06T13:29:51.457Z,99906.44
2023-03-06T13:32:30.963Z,99902.81
2023-03-06T13:34:59.255Z,99900.97
2023-03-06T13:37:50.993Z,99878.28
2023-03-06T13:40:31.609Z,99878.38
2023-03-06T13:43:32.872Z,99907.13
2023-03-06T13:46:25.991Z,99896.78
2023-03-06T13:49:14.820Z,99895.88
2023-03-06T13:51:50.495Z,99864.47
2023-03-06T13:54:36.912Z,99879.41
2023-03-06T13:57:31.447Z,99901.97
2023-03-06T14:00:40.167Z,99895.97
2023-03-06T14:03:38.394Z,99892.56
2023-03-06T14:06:42.104Z,99893.50
2023-03-06T14:09:22.108Z,99889.22
2023-03-06T14:11:57.613Z,99884.84
2023-03-06T14:14:34.647Z,99861.22
2023-03-06T14:17:05.382Z,99880.44
2023-03-06T14:19:39.480Z,99850.81
2023-03-06T14:22:18.807Z,99874.41
2023-03-06T14:25:00.715Z,99832.66
2023-03-06T14:27:48.492Z,99863.16
2023-03-06T14:30:21.099Z,99865.72
2023-03-06T14:32:52.106Z,99852.72
2023-03-06T14:35:32.478Z,99838.78
2023-03-06T14:38:09.244Z,99858.81
2023-03-06T14:40:48.603Z,99858.00
2023-03-06T14:43:23.221Z,99858.00
2023-03-06T14:45:59.890Z,99856.22
2023-03-06T14:48:39.929Z,99849.25
2023-03-06T14:51:17.663Z,99828.41
2023-03-06T14:53:48.832Z,99854.53
2023-03-06T14:56:23.686Z,99840.59
2023-03-06T14:58:59.969Z,99842.34
2023-03-06T15:01:34.298Z,99816.25
2023-03-06T15:04:04.180Z,99831.91
2023-03-06T15:06:37.826Z,99835.38
2023-03-06T15:09:10.588Z,99845.78
2023-03-06T15:11:58.972Z,99834.53
2023-03-06T15:14:40.367Z,99832.81
2023-03-06T15:17:27.014Z,99828.44
2023-03-06T15:19:58.492Z,99830.16
2023-03-06T15:22:37.893Z,99823.19
2023-03-06T15:25:27.009Z,99807.53
2023-03-06T15:27:59.290Z,99818.03
2023-03-06T15:30:31.088Z,99814.50
2023-03-06T15:33:25.950Z,99786.69
2023-03-06T15:35:57.653Z,99821.47
2023-03-06T15:38:37.326Z,99821.47
2023-03-06T15:41:10.219Z,99814.50
2023-03-06T15:43:42.072Z,99823.19
2023-03-06T15:46:10.415Z,99817.97
2023-03-06T15:48:38.532Z,99818.88
2023-03-06T15:51:09.544Z,99819.75
2023-03-06T15:53:38.257Z,99821.50
2023-03-06T15:56:07.190Z,99814.53
2023-03-06T15:58:36.001Z,99774.53
2023-03-06T16:01:06.889Z,99818.88
2023-03-06T16:03:37.722Z,99821.47
2023-03-06T16:06:06.441Z,99815.34
2023-03-06T16:08:34.900Z,99807.53
2023-03-06T16:11:03.364Z,99809.28
2023-03-06T16:13:31.764Z,99809.25
2023-03-06T16:16:00.166Z,99816.22
2023-03-06T16:18:34.038Z,99817.13
2023-03-06T16:21:02.156Z,99819.69
2023-03-06T16:23:30.523Z,99828.38
2023-03-06T16:25:58.839Z,99820.56
2023-03-06T16:28:28.101Z,99829.25
2023-03-06T16:30:56.810Z,99819.69
2023-03-06T16:33:29.624Z,99826.66
2023-03-06T16:35:59.565Z,99823.19
2023-03-06T16:38:31.006Z,99824.94
2023-03-06T16:40:59.715Z,99777.09
2023-03-06T16:43:28.182Z,99805.78
2023-03-06T16:45:57.714Z,99820.56
2023-03-06T16:48:26.095Z,99821.47
2023-03-06T16:50:54.346Z,99823.19
2023-03-06T16:53:23.925Z,99823.22
2023-03-06T16:55:52.438Z,99826.69
2023-03-06T16:58:21.022Z,99804.91
2023-03-06T17:00:49.845Z,99828.41
2023-03-06T17:03:18.328Z,99826.63
2023-03-06T17:05:46.522Z,99830.13
2023-03-06T17:08:14.710Z,99824.81
2023-03-06T17:10:44.934Z,99814.34
2023-03-06T17:13:16.285Z,99830.81
2023-03-06T17:15:56.285Z,99840.28
2023-03-06T17:18:27.138Z,99833.41
2023-03-06T17:20:56.353Z,99831.75
2023-03-06T17:23:27.161Z,99830.84
2023-03-06T17:26:11.724Z,99831.56
2023-03-06T17:28:43.280Z,99828.06
2023-03-06T17:31:16.730Z,99841.97
2023-03-06T17:33:48.164Z,99843.72
2023-03-06T17:36:20.568Z,99845.47
2023-03-06T17:38:48.916Z,99839.44
2023-03-06T17:41:18.590Z,99831.63
2023-03-06T17:43:49.032Z,99843.72
2023-03-06T17:46:18.440Z,99826.34
2023-03-06T17:48:47.238Z,99828.13
2023-03-06T17:51:18.387Z,99822.94
2023-03-06T17:53:49.640Z,99819.50
2023-03-06T17:56:23.637Z,99781.06
2023-03-06T17:58:54.591Z,99824.50
2023-03-06T18:01:27.518Z,99822.69
2023-03-06T18:03:55.906Z,99822.72
2023-03-06T18:06:26.418Z,99805.34
2023-03-06T18:08:55.543Z,99821.78
2023-03-06T18:11:25.643Z,99806.94
2023-03-06T18:13:54.134Z,99805.25
2023-03-06T18:16:24.676Z,99815.75
2023-03-06T18:18:56.882Z,99800.16
2023-03-06T18:21:26.803Z,99809.88
2023-03-06T18:23:55.908Z,99799.44
2023-03-06T18:26:28.348Z,99810.78
2023-03-06T18:28:58.216Z,99791.63
2023-03-06T18:31:28.854Z,99805.53
2023-03-06T18:33:59.153Z,99812.53
2023-03-06T18:36:29.941Z,99808.22
2023-03-06T18:38:58.995Z,99819.47
2023-03-06T18:41:32.619Z,99815.94
2023-03-06T18:44:02.607Z,99815.78
2023-03-06T18:46:32.787Z,99811.34
2023-03-06T18:49:03.442Z,99812.13
2023-03-06T18:51:34.809Z,99813.88
2023-03-06T18:54:08.052Z,99807.78
2023-03-06T18:56:40.477Z,99815.56
2023-03-06T18:59:09.788Z,99802.34
2023-03-06T19:01:38.183Z,99810.19
2023-03-06T19:04:08.607Z,99791.19
2023-03-06T19:06:38.823Z,99790.19
2023-03-06T19:09:08.016Z,99798.78
2023-03-06T19:11:37.727Z,99787.47
2023-03-06T19:14:09.056Z,99797.97
2023-03-06T19:16:37.345Z,99798.09
2023-03-06T19:19:05.358Z,99792.84
2023-03-06T19:21:33.758Z,99789.34
2023-03-06T19:24:03.500Z,99782.38
2023-03-06T19:26:32.039Z,99750.06
2023-03-06T19:29:01.800Z,99782.28
2023-03-06T19:31:30.162Z,99781.25
2023-03-06T19:33:58.901Z,99785.63
2023-03-06T19:36:33.605Z,99776.16
2023-03-06T19:39:04.834Z,99766.53
2023-03-06T19:41:33.717Z,99780.53
2023-03-06T19:44:05.901Z,99769.94
2023-03-06T19:46:36.393Z,99754.25
2023-03-06T19:49:11.806Z,99764.63
2023-03-06T19:51:40.202Z,99766.56
2023-03-06T19:54:08.427Z,99757.13
2023-03-06T19:56:36.802Z,99757.09
2023-03-06T19:59:06.634Z,99744.16
2023-03-06T20:01:35.702Z,99758.88
2023-03-06T20:04:04.094Z,99721.47
2023-03-06T20:06:36.898Z,99753.69
2023-03-06T20:09:09.973Z,99738.84
2023-03-06T20:11:41.374Z,99745.72
2023-03-06T20:14:14.239Z,99743.97
2023-03-06T20:16:50.337Z,99716.22
2023-03-06T20:19:19.353Z,99706.69
2023-03-06T20:21:50.231Z,99702.31
2023-03-06T20:24:23.341Z,99653.41
2023-03-06T20:26:53.617Z,99696.03
2023-03-06T20:29:28.046Z,99719.50
2023-03-06T20:31:59.166Z,99708.19
2023-03-06T20:34:28.406Z,99714.41
2023-03-06T20:36:58.200Z,99708.41
2023-03-06T20:39:28.900Z,99706.63
2023-03-06T20:41:59.236Z,99705.66
2023-03-06T20:44:30.717Z,99667.38
2023-03-06T20:46:59.364Z,99700.56
2023-03-06T20:49:28.674Z,99693.84
2023-03-06T20:51:57.159Z,99686.03
2023-03-06T20:54:26.140Z,99693.81
2023-03-06T20:56:54.718Z,99693.88
2023-03-06T20:59:24.105Z,99653.78
2023-03-06T21:01:53.732Z,99681.66
2023-03-06T21:04:22.040Z,99674.81
2023-03-06T21:06:53.824Z,99676.63
2023-03-06T21:09:22.679Z,99657.56
2023-03-06T21:11:51.184Z,99662.75
2023-03-06T21:14:19.566Z,99650.59
2023-03-06T21:16:48.409Z,99636.72
2023-03-06T21:19:19.342Z,99641.88
2023-03-06T21:21:48.482Z,99646.28
2023-03-06T21:24:17.072Z,99643.72
2023-03-06T21:26:45.819Z,99643.63
2023-03-06T21:29:14.142Z,99617.47
2023-03-06T21:31:42.782Z,99645.34
2023-03-06T21:34:11.827Z,99602.69
2023-03-06T21:36:43.165Z,99641.78
2023-03-06T21:39:12.042Z,99617.41
2023-03-06T21:41:40.945Z,99636.53
2023-03-06T21:44:09.785Z,99639.13
2023-03-06T21:46:38.662Z,99626.16
2023-03-06T21:49:07.366Z,99612.22
2023-03-06T21:51:40.388Z,99620.13
2023-03-06T21:54:13.247Z,99608.88
2023-03-06T21:56:45.303Z,99615.91
2023-03-06T21:59:13.776Z,99608.78
2023-03-06T22:01:48.091Z,99613.91
2023-03-06T22:04:16.815Z,99591.31
2023-03-06T22:06:45.057Z,99572.19
2023-03-06T22:09:17.465Z,99583.59
2023-03-06T22:11:45.983Z,99522.78
2023-03-06T22:14:14.935Z,99589.88
2023-03-06T22:16:43.344Z,99585.56
2023-03-06T22:19:11.700Z,99580.25
2023-03-06T22:21:40.282Z,99577.72
2023-03-06T22:24:08.952Z,99565.59
2023-03-06T22:26:38.552Z,99548.22
2023-03-06T22:29:06.653Z,99520.31
2023-03-06T22:31:34.973Z,99551.66
2023-03-06T22:34:03.522Z,99543.88
2023-03-06T22:36:32.432Z,99537.84
2023-03-06T22:39:02.600Z,99523.97
2023-03-06T22:41:31.192Z,99515.28
2023-03-06T22:44:03.233Z,99515.25
2023-03-06T22:46:33.062Z,99527.47
2023-03-06T22:49:02.347Z,99513.56
2023-03-06T22:51:30.967Z,99506.63
2023-03-06T22:53:59.655Z,99506.63
2023-03-06T22:56:28.604Z,99509.28
2023-03-06T22:58:57.771Z,99505.81
2023-03-06T23:01:29.269Z,99489.25
2023-03-06T23:03:59.015Z,99496.19
2023-03-06T23:06:28.927Z,99501.44
2023-03-06T23:08:59.365Z,99482.34
2023-03-06T23:11:29.005Z,99496.19
2023-03-06T23:13:57.767Z,99458.03
2023-03-06T23:16:27.805Z,99478.03
2023-03-06T23:18:55.884Z,99470.22
2023-03-06T23:21:24.912Z,99449.41
2023-03-06T23:23:54.250Z,99434.59
2023-03-06T23:26:25.336Z,99440.63
2023-03-06T23:28:54.154Z,99449.28
2023-03-06T23:31:27.527Z,99437.16
2023-03-06T23:33:58.483Z,99429.31
2023-03-06T23:36:26.714Z,99421.56
2023-03-06T23:38:55.800Z,99404.19
2023-03-06T23:41:24.929Z,99407.69
2023-03-06T23:43:55.136Z,99409.41
2023-03-06T23:46:23.873Z,99393.81
2023-03-06T23:48:52.685Z,99393.75
2023-03-06T23:51:24.605Z,99385.03
2023-03-06T23:53:56.333Z,99383.31
2023-03-06T23:56:25.504Z,99381.63
2023-03-06T23:58:54.075Z,99370.38
